createdAt,value
2022-10-17T00:00:20.837Z,1.58
2022-10-17T00:03:43.410Z,1.30
2022-10-17T00:06:45.866Z,1.25
2022-10-17T00:09:48.179Z,1.40
2022-10-17T00:12:52.133Z,1.25
2022-10-17T00:18:57.533Z,1.15
2022-10-17T00:22:00.290Z,1.25
2022-10-17T00:25:02.244Z,1.33
2022-10-17T00:28:04.637Z,1.40
2022-10-17T00:31:08.091Z,1.30
2022-10-17T00:34:10.674Z,1.30
2022-10-17T00:37:13.204Z,1.40
2022-10-17T00:40:17.075Z,1.20
2022-10-17T00:43:22.077Z,1.27
2022-10-17T00:46:29.431Z,2.28
2022-10-17T00:49:35.936Z,1.30
2022-10-17T00:52:40.752Z,1.63
2022-10-17T00:55:48.723Z,1.33
2022-10-17T00:58:51.951Z,1.30
2022-10-17T01:02:03.059Z,1.27
2022-10-17T01:05:07.692Z,1.55
2022-10-17T01:08:11.303Z,1.30
2022-10-17T01:11:40.001Z,1.50
2022-10-17T01:15:17.745Z,1.25
2022-10-17T01:18:33.654Z,1.58
2022-10-17T01:21:55.731Z,1.60
2022-10-17T01:25:22.948Z,1.05
2022-10-17T01:28:45.195Z,1.08
2022-10-17T01:31:57.545Z,1.00
2022-10-17T01:35:10.934Z,1.75
2022-10-17T01:38:43.753Z,1.35
2022-10-17T01:42:12.446Z,1.50
2022-10-17T01:45:27.407Z,1.35
2022-10-17T01:51:48.530Z,1.30
2022-10-17T01:55:01.149Z,1.33
2022-10-17T01:58:14.251Z,1.35
2022-10-17T02:01:18.022Z,1.15
2022-10-17T02:04:20.734Z,1.20
2022-10-17T02:07:22.880Z,1.63
2022-10-17T02:10:38.929Z,1.83
2022-10-17T02:13:56.415Z,1.60
2022-10-17T02:21:22.645Z,1.10
2022-10-17T02:24:41.635Z,1.40
2022-10-17T02:27:44.287Z,1.20
2022-10-17T02:31:04.721Z,1.30
2022-10-17T02:34:21.179Z,1.20
2022-10-17T02:37:29.412Z,1.10
2022-10-17T02:40:32.587Z,0.88
2022-10-17T02:43:36.615Z,1.38
2022-10-17T02:46:41.994Z,1.30
2022-10-17T02:49:50.218Z,1.27
2022-10-17T02:53:01.560Z,1.00
2022-10-17T02:56:15.072Z,0.93
2022-10-17T02:59:21.251Z,1.15
2022-10-17T03:02:23.679Z,1.17
2022-10-17T03:05:30.516Z,1.40
2022-10-17T03:08:32.824Z,1.20
2022-10-17T03:11:36.707Z,1.20
2022-10-17T03:14:39.801Z,1.08
2022-10-17T03:17:42.341Z,1.05
2022-10-17T03:20:45.527Z,1.40
2022-10-17T03:23:47.710Z,0.80
2022-10-17T03:26:51.568Z,1.08
2022-10-17T03:29:53.567Z,1.08
2022-10-17T03:32:58.990Z,1.08
2022-10-17T03:36:06.369Z,1.10
2022-10-17T03:39:10.699Z,1.23
2022-10-17T03:42:13.376Z,1.15
2022-10-17T03:45:16.133Z,1.20
2022-10-17T03:48:18.960Z,1.20
2022-10-17T03:51:21.630Z,1.30
2022-10-17T03:54:29.777Z,1.10
2022-10-17T03:57:37.044Z,1.33
2022-10-17T04:00:41.176Z,1.45
2022-10-17T04:03:44.534Z,1.38
2022-10-17T04:06:47.981Z,1.15
2022-10-17T04:09:50.518Z,1.40
2022-10-17T04:12:55.330Z,1.40
2022-10-17T04:16:00.527Z,1.25
2022-10-17T04:19:03.174Z,1.38
2022-10-17T04:22:11.433Z,1.20
2022-10-17T04:25:15.545Z,1.30
2022-10-17T04:28:22.499Z,1.20
2022-10-17T04:31:24.882Z,1.38
2022-10-17T04:34:50.420Z,1.38
2022-10-17T04:37:54.181Z,1.15
2022-10-17T04:41:04.632Z,1.30
2022-10-17T04:44:07.203Z,1.20
2022-10-17T04:47:14.977Z,1.10
2022-10-17T04:50:18.614Z,1.40
2022-10-17T04:53:40.381Z,1.38
2022-10-17T04:56:43.021Z,1.23
2022-10-17T04:59:46.038Z,1.30
2022-10-17T05:03:00.189Z,1.38
2022-10-17T05:06:09.161Z,1.30
2022-10-17T05:09:12.342Z,1.25
2022-10-17T05:12:15.069Z,1.20
2022-10-17T05:15:20.241Z,1.45
2022-10-17T05:18:22.699Z,1.40
2022-10-17T05:21:28.666Z,1.17
2022-10-17T05:24:31.495Z,1.60
2022-10-17T05:27:33.706Z,1.40
2022-10-17T05:30:37.725Z,1.25
2022-10-17T05:33:43.367Z,1.52
2022-10-17T05:36:46.571Z,1.20
2022-10-17T05:39:53.937Z,1.40
2022-10-17T05:42:56.372Z,1.38
2022-10-17T05:46:04.881Z,1.33
2022-10-17T05:49:19.455Z,1.65
2022-10-17T05:52:28.566Z,1.73
2022-10-17T05:55:56.196Z,2.20
2022-10-17T05:59:01.075Z,1.80
2022-10-17T06:02:24.623Z,1.80
2022-10-17T06:05:26.880Z,1.80
2022-10-17T06:08:29.512Z,1.70
2022-10-17T06:11:32.469Z,2.10
2022-10-17T06:14:35.628Z,1.50
2022-10-17T06:17:39.368Z,1.90
2022-10-17T06:20:45.280Z,1.38
2022-10-17T06:23:50.002Z,2.55
2022-10-17T06:27:00.737Z,1.77
2022-10-17T06:30:04.263Z,1.83
2022-10-17T06:33:07.641Z,1.40
2022-10-17T06:36:14.050Z,1.40
2022-10-17T06:39:16.785Z,1.45
2022-10-17T06:42:26.773Z,1.42
2022-10-17T06:45:40.783Z,1.60
2022-10-17T06:49:05.106Z,1.58
2022-10-17T06:52:23.162Z,2.17
2022-10-17T06:55:45.172Z,2.67
2022-10-17T06:59:12.609Z,2.78
2022-10-17T07:02:24.341Z,2.90
2022-10-17T07:05:28.411Z,2.80
2022-10-17T07:08:30.687Z,3.55
2022-10-17T07:11:35.985Z,2.95
2022-10-17T07:14:38.303Z,3.40
2022-10-17T07:17:41.207Z,3.42
2022-10-17T07:20:44.040Z,2.05
2022-10-17T07:23:46.967Z,3.83
2022-10-17T07:26:49.559Z,3.40
2022-10-17T07:29:52.220Z,2.50
2022-10-17T07:33:14.801Z,3.20
2022-10-17T07:36:18.283Z,2.60
2022-10-17T07:39:21.264Z,3.00
2022-10-17T07:42:24.180Z,3.78
2022-10-17T07:45:27.960Z,3.38
2022-10-17T07:48:31.982Z,3.33
2022-10-17T07:51:34.916Z,2.42
2022-10-17T07:54:37.530Z,2.97
2022-10-17T07:57:41.456Z,2.60
2022-10-17T08:00:44.026Z,2.60
2022-10-17T08:03:48.734Z,2.92
2022-10-17T08:06:56.444Z,2.63
2022-10-17T08:10:03.606Z,2.28
2022-10-17T08:13:06.206Z,3.22
2022-10-17T08:16:11.066Z,3.38
2022-10-17T08:19:13.434Z,2.38
2022-10-17T08:22:15.531Z,2.00
2022-10-17T08:25:17.900Z,1.80
2022-10-17T08:28:20.708Z,1.95
2022-10-17T08:31:23.517Z,1.85
2022-10-17T08:34:26.491Z,2.28
2022-10-17T08:37:30.693Z,2.13
2022-10-17T08:40:35.860Z,2.15
2022-10-17T08:44:07.587Z,2.35
2022-10-17T08:47:22.482Z,2.13
2022-10-17T08:50:55.622Z,2.03
2022-10-17T08:54:04.370Z,2.22
2022-10-17T08:57:13.048Z,2.10
2022-10-17T09:00:18.893Z,2.03
2022-10-17T09:03:41.882Z,2.10
2022-10-17T09:06:52.282Z,2.00
2022-10-17T09:10:17.591Z,2.10
2022-10-17T09:13:25.513Z,1.75
2022-10-17T09:16:49.652Z,2.10
2022-10-17T09:20:04.515Z,1.80
2022-10-17T09:23:20.420Z,1.70
2022-10-17T09:26:22.925Z,1.75
2022-10-17T09:29:32.354Z,1.40
2022-10-17T09:32:38.218Z,1.63
2022-10-17T09:35:42.336Z,2.00
2022-10-17T09:38:57.991Z,1.80
2022-10-17T09:42:02.944Z,1.77
2022-10-17T09:45:11.346Z,1.80
2022-10-17T09:48:23.972Z,2.05
2022-10-17T09:51:26.520Z,1.80
2022-10-17T09:54:42.140Z,1.95
2022-10-17T09:58:02.294Z,2.10
2022-10-17T10:01:25.189Z,1.70
2022-10-17T10:04:30.420Z,1.75
2022-10-17T10:07:39.988Z,1.90
2022-10-17T10:10:43.772Z,1.77
2022-10-17T10:13:48.740Z,1.73
2022-10-17T10:16:53.833Z,1.92
2022-10-17T10:19:56.695Z,1.70
2022-10-17T10:23:21.590Z,1.98
2022-10-17T10:26:27.830Z,1.52
2022-10-17T10:29:39.158Z,1.70
2022-10-17T10:32:47.833Z,2.08
2022-10-17T10:35:58.372Z,1.83
2022-10-17T10:39:02.573Z,1.92
2022-10-17T10:42:18.399Z,2.35
2022-10-17T10:49:04.357Z,2.30
2022-10-17T10:52:12.385Z,1.83
2022-10-17T10:55:25.575Z,2.17
2022-10-17T10:58:41.907Z,2.13
2022-10-17T11:02:05.421Z,1.92
2022-10-17T11:05:20.489Z,1.98
2022-10-17T11:08:42.930Z,2.20
2022-10-17T11:12:08.500Z,1.95
2022-10-17T11:15:42.115Z,1.88
2022-10-17T11:19:23.574Z,1.80
2022-10-17T11:22:39.366Z,1.88
2022-10-17T11:25:48.387Z,1.63
2022-10-17T11:28:50.833Z,1.85
2022-10-17T11:35:26.587Z,1.38
2022-10-17T11:38:51.701Z,1.17
2022-10-17T11:42:03.258Z,1.33
2022-10-17T11:45:22.486Z,1.63
2022-10-17T11:48:40.190Z,1.52
2022-10-17T11:52:05.923Z,1.50
2022-10-17T11:55:28.995Z,1.55
2022-10-17T11:58:46.158Z,1.70
2022-10-17T12:01:54.513Z,1.20
2022-10-17T12:05:34.048Z,1.27
2022-10-17T12:09:01.144Z,1.27
2022-10-17T12:12:04.647Z,1.40
2022-10-17T12:15:25.518Z,1.30
2022-10-17T12:18:28.250Z,1.42
2022-10-17T12:22:02.703Z,1.20
2022-10-17T12:25:06.465Z,1.23
2022-10-17T12:28:15.108Z,1.10
2022-10-17T12:31:18.051Z,1.00
2022-10-17T12:34:23.977Z,1.55
2022-10-17T12:37:45.652Z,1.13
2022-10-17T12:40:52.778Z,1.00
2022-10-17T12:43:56.462Z,1.10
2022-10-17T12:47:11.319Z,1.10
2022-10-17T12:51:30.847Z,1.10
2022-10-17T12:54:27.370Z,1.00
2022-10-17T13:01:18.807Z,1.30
2022-10-17T13:04:18.989Z,1.17
2022-10-17T13:07:22.579Z,1.10
2022-10-17T13:10:28.012Z,0.98
2022-10-17T13:13:42.869Z,1.30
2022-10-17T13:16:51.500Z,1.35
2022-10-17T13:19:55.363Z,1.10
2022-10-17T13:26:25.091Z,1.20
2022-10-17T13:29:30.198Z,1.23
2022-10-17T13:32:39.467Z,1.20
2022-10-17T13:35:59.454Z,1.10
2022-10-17T13:39:13.695Z,1.17
2022-10-17T13:42:28.023Z,1.30
2022-10-17T13:45:34.514Z,0.88
2022-10-17T13:48:38.239Z,1.02
2022-10-17T13:51:44.388Z,1.30
2022-10-17T13:54:51.635Z,1.00
2022-10-17T13:57:53.839Z,1.20
2022-10-17T14:00:57.257Z,1.25
2022-10-17T14:04:20.142Z,1.50
2022-10-17T14:07:46.113Z,1.20
2022-10-17T14:10:54.559Z,1.17
2022-10-17T14:13:59.177Z,1.55
2022-10-17T14:20:26.644Z,1.50
2022-10-17T14:23:43.124Z,1.30
2022-10-17T14:26:55.083Z,1.08
2022-10-17T14:30:05.945Z,1.05
2022-10-17T14:33:15.167Z,1.00
2022-10-17T14:36:17.649Z,1.20
2022-10-17T14:39:23.999Z,1.10
2022-10-17T14:42:27.370Z,0.85
2022-10-17T14:45:35.033Z,1.27
2022-10-17T14:48:37.288Z,0.98
2022-10-17T14:51:50.643Z,1.15
2022-10-17T14:55:21.441Z,1.15
2022-10-17T14:58:29.927Z,0.82
2022-10-17T15:01:33.669Z,0.80
2022-10-17T15:04:35.978Z,1.00
2022-10-17T15:07:38.269Z,0.70
2022-10-17T15:10:42.239Z,1.20
2022-10-17T15:13:45.830Z,0.73
2022-10-17T15:16:48.487Z,1.30
2022-10-17T15:19:51.002Z,0.93
2022-10-17T15:22:57.098Z,1.02
2022-10-17T15:25:59.274Z,1.20
2022-10-17T15:29:02.531Z,0.80
2022-10-17T15:32:08.194Z,0.88
2022-10-17T15:35:10.537Z,0.70
2022-10-17T15:38:18.203Z,1.00
2022-10-17T15:41:20.599Z,1.05
2022-10-17T15:44:23.989Z,0.73
2022-10-17T15:47:35.218Z,0.80
2022-10-17T15:50:37.306Z,0.80
2022-10-17T15:53:39.991Z,1.00
2022-10-17T15:56:43.737Z,0.90
2022-10-17T15:59:47.644Z,0.90
2022-10-17T16:02:50.536Z,1.10
2022-10-17T16:05:53.025Z,0.98
2022-10-17T16:08:55.318Z,1.00
2022-10-17T16:11:57.977Z,0.90
2022-10-17T16:15:00.650Z,0.82
2022-10-17T16:18:05.975Z,0.70
2022-10-17T16:21:14.194Z,1.00
2022-10-17T16:24:18.054Z,0.88
2022-10-17T16:27:20.068Z,1.05
2022-10-17T16:30:24.395Z,1.00
2022-10-17T16:33:27.098Z,0.80
2022-10-17T16:36:29.650Z,0.90
2022-10-17T16:39:32.196Z,0.90
2022-10-17T16:42:34.656Z,1.05
2022-10-17T16:45:37.185Z,0.80
2022-10-17T16:51:46.932Z,0.80
2022-10-17T16:59:05.441Z,0.90
2022-10-17T17:02:22.823Z,0.80
2022-10-17T17:05:42.190Z,0.70
2022-10-17T17:08:46.278Z,0.77
2022-10-17T17:17:19.626Z,0.82
2022-10-17T17:19:58.921Z,1.02
2022-10-17T17:23:01.231Z,1.02
2022-10-17T17:26:09.791Z,1.30
2022-10-17T17:29:12.398Z,1.20
2022-10-17T17:32:14.962Z,1.25
2022-10-17T17:35:17.695Z,1.38
2022-10-17T17:38:19.818Z,1.20
2022-10-17T17:41:22.639Z,1.40
2022-10-17T17:44:24.728Z,1.38
2022-10-17T17:47:30.000Z,1.90
2022-10-17T17:50:33.270Z,1.30
2022-10-17T17:53:36.170Z,1.40
2022-10-17T17:56:39.079Z,1.33
2022-10-17T17:59:41.643Z,1.48
2022-10-17T18:02:44.502Z,1.05
2022-10-17T18:05:47.073Z,1.33
2022-10-17T18:08:53.390Z,1.55
2022-10-17T18:11:56.105Z,1.33
2022-10-17T18:14:58.325Z,1.55
2022-10-17T18:18:00.619Z,1.30
2022-10-17T18:21:02.668Z,1.10
2022-10-17T18:24:06.475Z,1.00
2022-10-17T18:27:09.538Z,1.92
2022-10-17T18:30:14.252Z,1.30
2022-10-17T18:33:17.790Z,1.55
2022-10-17T18:36:21.358Z,1.42
2022-10-17T18:39:23.630Z,1.50
2022-10-17T18:45:32.182Z,1.40
2022-10-17T18:48:39.911Z,1.30
2022-10-17T18:51:43.128Z,1.80
2022-10-17T18:54:45.701Z,1.48
2022-10-17T18:57:51.885Z,1.50
2022-10-17T19:00:54.375Z,1.50
2022-10-17T19:03:58.466Z,1.30
2022-10-17T19:07:03.744Z,1.67
2022-10-17T19:10:06.404Z,1.70
2022-10-17T19:13:12.172Z,1.38
2022-10-17T19:16:18.902Z,1.60
2022-10-17T19:19:25.712Z,1.85
2022-10-17T19:22:28.531Z,1.42
2022-10-17T19:25:31.371Z,2.00
2022-10-17T19:28:34.345Z,1.67
2022-10-17T19:31:36.972Z,1.60
2022-10-17T19:34:39.353Z,1.83
2022-10-17T19:37:42.141Z,1.70
2022-10-17T19:40:44.721Z,2.15
2022-10-17T19:43:47.571Z,1.60
2022-10-17T19:46:50.768Z,2.15
2022-10-17T19:49:53.120Z,1.60
2022-10-17T19:52:55.301Z,1.50
2022-10-17T19:55:59.152Z,1.70
2022-10-17T19:59:01.551Z,1.73
2022-10-17T20:02:04.045Z,1.55
2022-10-17T20:05:18.601Z,2.00
2022-10-17T20:08:21.724Z,2.15
2022-10-17T20:11:26.433Z,1.75
2022-10-17T20:14:28.942Z,1.88
2022-10-17T20:17:31.213Z,1.60
2022-10-17T20:20:38.147Z,1.85
2022-10-17T20:23:41.877Z,1.90
2022-10-17T20:26:45.345Z,2.05
2022-10-17T20:29:47.712Z,1.50
2022-10-17T20:32:55.228Z,1.90
2022-10-17T20:36:03.620Z,1.98
2022-10-17T20:39:07.283Z,2.28
2022-10-17T20:42:09.612Z,2.17
2022-10-17T20:45:12.193Z,2.45
2022-10-17T20:48:16.586Z,2.20
2022-10-17T20:51:19.564Z,2.08
2022-10-17T20:54:22.474Z,2.30
2022-10-17T20:57:25.104Z,2.28
2022-10-17T21:00:29.067Z,2.47
2022-10-17T21:06:33.484Z,2.25
2022-10-17T21:09:35.783Z,2.13
2022-10-17T21:12:53.142Z,2.13
2022-10-17T21:16:04.266Z,2.03
2022-10-17T21:19:15.733Z,2.63
2022-10-17T21:22:20.229Z,2.17
2022-10-17T21:25:24.823Z,2.20
2022-10-17T21:28:27.715Z,2.10
2022-10-17T21:31:30.876Z,1.77
2022-10-17T21:34:33.944Z,2.10
2022-10-17T21:37:35.923Z,2.20
2022-10-17T21:40:39.127Z,1.90
2022-10-17T21:43:52.589Z,1.90
2022-10-17T21:46:55.829Z,1.87
2022-10-17T21:49:57.932Z,1.90
2022-10-17T21:53:00.254Z,2.70
2022-10-17T21:56:05.519Z,1.70
2022-10-17T21:59:08.197Z,1.90
2022-10-17T22:02:10.427Z,2.17
2022-10-17T22:05:12.908Z,2.05
2022-10-17T22:08:14.980Z,1.83
2022-10-17T22:11:28.106Z,1.85
2022-10-17T22:14:30.656Z,1.70
2022-10-17T22:17:33.538Z,1.52
2022-10-17T22:20:35.899Z,1.75
2022-10-17T22:23:38.417Z,1.80
2022-10-17T22:26:41.544Z,1.83
2022-10-17T22:29:44.463Z,1.70
2022-10-17T22:32:47.616Z,2.10
2022-10-17T22:35:50.657Z,1.80
2022-10-17T22:38:53.233Z,1.77
2022-10-17T22:41:56.660Z,1.98
2022-10-17T22:44:59.337Z,2.15
2022-10-17T22:48:02.018Z,2.03
2022-10-17T22:51:04.278Z,1.73
2022-10-17T22:54:06.440Z,1.40
2022-10-17T22:57:08.849Z,1.45
2022-10-17T23:00:12.261Z,1.70
2022-10-17T23:03:16.654Z,1.70
2022-10-17T23:06:20.243Z,1.58
2022-10-17T23:09:22.827Z,2.00
2022-10-17T23:12:25.664Z,1.48
2022-10-17T23:15:27.847Z,1.65
2022-10-17T23:21:33.304Z,1.50
2022-10-17T23:24:36.121Z,1.73
2022-10-17T23:27:38.183Z,1.63
2022-10-17T23:30:40.927Z,1.40
2022-10-17T23:33:45.203Z,1.67
2022-10-17T23:36:47.805Z,1.40
2022-10-17T23:39:50.026Z,1.50
2022-10-17T23:42:52.316Z,1.30
2022-10-17T23:45:54.378Z,1.92
2022-10-17T23:48:58.071Z,1.42
2022-10-17T23:52:00.313Z,1.42
2022-10-17T23:55:02.494Z,1.35
2022-10-17T23:58:05.002Z,1.60
